sensor_id;sensor_type;location;lat;lon;timestamp;P1;durP1;ratioP1;P2;durP2;ratioP2
56399;SDS011;42298;53.638;9.876;2022-12-18T00:02:01;22.40;;;15.33;;
56399;SDS011;42298;53.638;9.876;2022-12-18T00:04:37;27.27;;;16.10;;
56399;SDS011;42298;53.638;9.876;2022-12-18T00:07:03;25.70;;;15.30;;
56399;SDS011;42298;53.638;9.876;2022-12-18T00:09:29;25.10;;;15.80;;
56399;SDS011;42298;53.638;9.876;2022-12-18T00:11:54;22.10;;;14.70;;
56399;SDS011;42298;53.638;9.876;2022-12-18T00:14:21;27.53;;;15.93;;
56399;SDS011;42298;53.638;9.876;2022-12-18T00:16:47;28.33;;;14.40;;
56399;SDS011;42298;53.638;9.876;2022-12-18T00:19:13;28.70;;;15.70;;
56399;SDS011;42298;53.638;9.876;2022-12-18T00:21:49;30.30;;;16.63;;
56399;SDS011;42298;53.638;9.876;2022-12-18T00:24:14;23.90;;;15.00;;
56399;SDS011;42298;53.638;9.876;2022-12-18T00:26:40;25.90;;;15.70;;
56399;SDS011;42298;53.638;9.876;2022-12-18T00:29:12;23.30;;;14.17;;
56399;SDS011;42298;53.638;9.876;2022-12-18T00:31:43;22.53;;;14.30;;
56399;SDS011;42298;53.638;9.876;2022-12-18T00:34:12;24.90;;;13.57;;
56399;SDS011;42298;53.638;9.876;2022-12-18T00:36:39;21.13;;;13.50;;
56399;SDS011;42298;53.638;9.876;2022-12-18T00:39:05;27.00;;;15.17;;
56399;SDS011;42298;53.638;9.876;2022-12-18T00:41:32;24.07;;;14.33;;
56399;SDS011;42298;53.638;9.876;2022-12-18T00:44:17;22.63;;;13.60;;
56399;SDS011;42298;53.638;9.876;2022-12-18T00:46:45;21.23;;;13.40;;
56399;SDS011;42298;53.638;9.876;2022-12-18T00:49:13;24.07;;;14.53;;
56399;SDS011;42298;53.638;9.876;2022-12-18T00:51:43;24.30;;;14.13;;
56399;SDS011;42298;53.638;9.876;2022-12-18T00:54:09;22.93;;;15.10;;
56399;SDS011;42298;53.638;9.876;2022-12-18T00:56:37;23.00;;;13.40;;
56399;SDS011;42298;53.638;9.876;2022-12-18T00:59:03;23.73;;;14.60;;
56399;SDS011;42298;53.638;9.876;2022-12-18T01:01:29;21.87;;;12.80;;
56399;SDS011;42298;53.638;9.876;2022-12-18T01:03:57;25.50;;;14.33;;
56399;SDS011;42298;53.638;9.876;2022-12-18T01:06:22;22.00;;;12.90;;
56399;SDS011;42298;53.638;9.876;2022-12-18T01:08:48;21.07;;;13.87;;
56399;SDS011;42298;53.638;9.876;2022-12-18T01:11:15;23.77;;;14.27;;
56399;SDS011;42298;53.638;9.876;2022-12-18T01:13:42;24.07;;;13.43;;
56399;SDS011;42298;53.638;9.876;2022-12-18T01:16:07;24.40;;;13.77;;
56399;SDS011;42298;53.638;9.876;2022-12-18T01:18:34;22.37;;;14.17;;
56399;SDS011;42298;53.638;9.876;2022-12-18T01:21:00;26.80;;;14.47;;
56399;SDS011;42298;53.638;9.876;2022-12-18T01:23:26;23.20;;;14.00;;
56399;SDS011;42298;53.638;9.876;2022-12-18T01:25:55;23.17;;;13.53;;
56399;SDS011;42298;53.638;9.876;2022-12-18T01:28:21;22.87;;;14.60;;
56399;SDS011;42298;53.638;9.876;2022-12-18T01:30:46;28.33;;;14.20;;
56399;SDS011;42298;53.638;9.876;2022-12-18T01:33:12;21.20;;;13.10;;
56399;SDS011;42298;53.638;9.876;2022-12-18T01:35:42;20.73;;;13.10;;
56399;SDS011;42298;53.638;9.876;2022-12-18T01:38:08;27.63;;;14.43;;
56399;SDS011;42298;53.638;9.876;2022-12-18T01:40:33;21.57;;;13.10;;
56399;SDS011;42298;53.638;9.876;2022-12-18T01:42:58;24.97;;;14.73;;
56399;SDS011;42298;53.638;9.876;2022-12-18T01:45:25;21.70;;;12.83;;
56399;SDS011;42298;53.638;9.876;2022-12-18T01:48:05;20.37;;;12.47;;
56399;SDS011;42298;53.638;9.876;2022-12-18T01:50:34;21.67;;;12.73;;
56399;SDS011;42298;53.638;9.876;2022-12-18T01:53:06;24.17;;;14.03;;
56399;SDS011;42298;53.638;9.876;2022-12-18T01:55:52;23.03;;;12.73;;
56399;SDS011;42298;53.638;9.876;2022-12-18T01:58:19;21.67;;;12.37;;
56399;SDS011;42298;53.638;9.876;2022-12-18T02:00:54;23.53;;;12.43;;
56399;SDS011;42298;53.638;9.876;2022-12-18T02:03:19;19.33;;;12.23;;
56399;SDS011;42298;53.638;9.876;2022-12-18T02:05:47;20.07;;;11.80;;
56399;SDS011;42298;53.638;9.876;2022-12-18T02:08:24;21.70;;;13.03;;
56399;SDS011;42298;53.638;9.876;2022-12-18T02:20:17;19.77;;;12.07;;
56399;SDS011;42298;53.638;9.876;2022-12-18T02:27:58;23.53;;;13.03;;
56399;SDS011;42298;53.638;9.876;2022-12-18T02:30:27;21.63;;;11.97;;
56399;SDS011;42298;53.638;9.876;2022-12-18T02:32:55;21.40;;;11.90;;
56399;SDS011;42298;53.638;9.876;2022-12-18T02:35:23;21.53;;;12.23;;
56399;SDS011;42298;53.638;9.876;2022-12-18T02:37:56;17.97;;;11.40;;
56399;SDS011;42298;53.638;9.876;2022-12-18T02:40:23;23.67;;;12.73;;
56399;SDS011;42298;53.638;9.876;2022-12-18T02:42:51;20.17;;;12.33;;
56399;SDS011;42298;53.638;9.876;2022-12-18T02:45:16;21.07;;;12.10;;
56399;SDS011;42298;53.638;9.876;2022-12-18T02:47:43;21.13;;;12.23;;
56399;SDS011;42298;53.638;9.876;2022-12-18T02:50:29;20.60;;;12.80;;
56399;SDS011;42298;53.638;9.876;2022-12-18T02:53:03;19.20;;;11.27;;
56399;SDS011;42298;53.638;9.876;2022-12-18T03:01:08;20.93;;;11.63;;
56399;SDS011;42298;53.638;9.876;2022-12-18T03:03:51;20.97;;;12.87;;
56399;SDS011;42298;53.638;9.876;2022-12-18T03:08:56;19.80;;;12.10;;
56399;SDS011;42298;53.638;9.876;2022-12-18T03:11:24;18.77;;;10.27;;
56399;SDS011;42298;53.638;9.876;2022-12-18T03:14:12;21.70;;;11.70;;
56399;SDS011;42298;53.638;9.876;2022-12-18T03:16:42;18.83;;;11.77;;
56399;SDS011;42298;53.638;9.876;2022-12-18T03:19:16;20.37;;;12.03;;
56399;SDS011;42298;53.638;9.876;2022-12-18T03:21:47;22.20;;;12.53;;
56399;SDS011;42298;53.638;9.876;2022-12-18T03:24:17;18.60;;;11.67;;
56399;SDS011;42298;53.638;9.876;2022-12-18T03:26:45;18.27;;;10.33;;
56399;SDS011;42298;53.638;9.876;2022-12-18T03:29:36;21.73;;;11.97;;
56399;SDS011;42298;53.638;9.876;2022-12-18T03:32:11;21.70;;;11.30;;
56399;SDS011;42298;53.638;9.876;2022-12-18T03:34:40;19.00;;;11.07;;
56399;SDS011;42298;53.638;9.876;2022-12-18T03:37:08;18.17;;;11.10;;
56399;SDS011;42298;53.638;9.876;2022-12-18T03:39:34;19.10;;;11.30;;
56399;SDS011;42298;53.638;9.876;2022-12-18T03:42:05;18.63;;;10.63;;
56399;SDS011;42298;53.638;9.876;2022-12-18T03:44:49;18.80;;;11.47;;
56399;SDS011;42298;53.638;9.876;2022-12-18T03:47:31;20.23;;;11.20;;
56399;SDS011;42298;53.638;9.876;2022-12-18T03:55:50;20.07;;;10.87;;
56399;SDS011;42298;53.638;9.876;2022-12-18T03:58:17;22.27;;;11.67;;
56399;SDS011;42298;53.638;9.876;2022-12-18T04:00:48;20.60;;;12.23;;
56399;SDS011;42298;53.638;9.876;2022-12-18T04:03:17;20.23;;;11.30;;
56399;SDS011;42298;53.638;9.876;2022-12-18T04:05:44;20.37;;;11.73;;
56399;SDS011;42298;53.638;9.876;2022-12-18T04:08:11;17.87;;;10.17;;
56399;SDS011;42298;53.638;9.876;2022-12-18T04:10:38;21.70;;;10.93;;
56399;SDS011;42298;53.638;9.876;2022-12-18T04:13:03;16.80;;;10.60;;
56399;SDS011;42298;53.638;9.876;2022-12-18T04:15:28;18.40;;;11.07;;
56399;SDS011;42298;53.638;9.876;2022-12-18T04:17:54;20.87;;;11.37;;
56399;SDS011;42298;53.638;9.876;2022-12-18T04:20:19;17.90;;;10.13;;
56399;SDS011;42298;53.638;9.876;2022-12-18T04:22:45;18.97;;;10.93;;
56399;SDS011;42298;53.638;9.876;2022-12-18T04:25:12;18.13;;;12.10;;
56399;SDS011;42298;53.638;9.876;2022-12-18T04:27:38;20.83;;;11.33;;
56399;SDS011;42298;53.638;9.876;2022-12-18T04:30:03;20.30;;;11.10;;
56399;SDS011;42298;53.638;9.876;2022-12-18T04:32:29;20.27;;;11.43;;
56399;SDS011;42298;53.638;9.876;2022-12-18T04:34:54;20.50;;;11.90;;
56399;SDS011;42298;53.638;9.876;2022-12-18T04:37:21;19.47;;;10.80;;
56399;SDS011;42298;53.638;9.876;2022-12-18T04:39:47;19.87;;;11.90;;
56399;SDS011;42298;53.638;9.876;2022-12-18T04:42:13;21.47;;;11.50;;
56399;SDS011;42298;53.638;9.876;2022-12-18T04:44:38;19.90;;;11.77;;
56399;SDS011;42298;53.638;9.876;2022-12-18T04:47:03;19.77;;;12.10;;
56399;SDS011;42298;53.638;9.876;2022-12-18T04:49:28;24.17;;;11.77;;
56399;SDS011;42298;53.638;9.876;2022-12-18T04:51:54;16.97;;;9.97;;
56399;SDS011;42298;53.638;9.876;2022-12-18T04:54:19;21.93;;;10.67;;
56399;SDS011;42298;53.638;9.876;2022-12-18T04:56:45;19.23;;;11.20;;
56399;SDS011;42298;53.638;9.876;2022-12-18T04:59:10;22.63;;;11.80;;
56399;SDS011;42298;53.638;9.876;2022-12-18T05:01:35;22.43;;;10.70;;
56399;SDS011;42298;53.638;9.876;2022-12-18T05:04:01;20.23;;;11.37;;
56399;SDS011;42298;53.638;9.876;2022-12-18T05:06:27;19.87;;;10.90;;
56399;SDS011;42298;53.638;9.876;2022-12-18T05:08:52;20.97;;;11.83;;
56399;SDS011;42298;53.638;9.876;2022-12-18T05:11:17;19.03;;;11.37;;
56399;SDS011;42298;53.638;9.876;2022-12-18T05:13:43;17.93;;;11.33;;
56399;SDS011;42298;53.638;9.876;2022-12-18T05:16:09;19.97;;;11.83;;
56399;SDS011;42298;53.638;9.876;2022-12-18T05:18:35;19.10;;;10.60;;
56399;SDS011;42298;53.638;9.876;2022-12-18T05:21:01;19.13;;;10.60;;
56399;SDS011;42298;53.638;9.876;2022-12-18T05:23:27;18.37;;;10.50;;
56399;SDS011;42298;53.638;9.876;2022-12-18T05:25:54;19.67;;;10.27;;
56399;SDS011;42298;53.638;9.876;2022-12-18T05:28:25;18.03;;;9.83;;
56399;SDS011;42298;53.638;9.876;2022-12-18T05:30:52;20.30;;;11.50;;
56399;SDS011;42298;53.638;9.876;2022-12-18T05:33:20;20.73;;;11.03;;
56399;SDS011;42298;53.638;9.876;2022-12-18T05:35:56;19.60;;;10.60;;
56399;SDS011;42298;53.638;9.876;2022-12-18T05:38:25;20.37;;;10.17;;
56399;SDS011;42298;53.638;9.876;2022-12-18T05:40:52;20.67;;;10.77;;
56399;SDS011;42298;53.638;9.876;2022-12-18T05:43:18;17.67;;;10.40;;
56399;SDS011;42298;53.638;9.876;2022-12-18T05:45:46;18.00;;;10.63;;
56399;SDS011;42298;53.638;9.876;2022-12-18T05:48:14;20.67;;;10.27;;
56399;SDS011;42298;53.638;9.876;2022-12-18T05:50:41;17.77;;;10.47;;
56399;SDS011;42298;53.638;9.876;2022-12-18T05:53:07;19.00;;;10.37;;
56399;SDS011;42298;53.638;9.876;2022-12-18T05:55:33;16.83;;;9.27;;
56399;SDS011;42298;53.638;9.876;2022-12-18T05:58:00;20.07;;;12.00;;
56399;SDS011;42298;53.638;9.876;2022-12-18T06:00:25;18.13;;;9.80;;
56399;SDS011;42298;53.638;9.876;2022-12-18T06:02:50;20.53;;;11.53;;
56399;SDS011;42298;53.638;9.876;2022-12-18T06:05:16;18.13;;;11.27;;
56399;SDS011;42298;53.638;9.876;2022-12-18T06:07:41;17.47;;;10.70;;
56399;SDS011;42298;53.638;9.876;2022-12-18T06:10:06;19.27;;;11.10;;
56399;SDS011;42298;53.638;9.876;2022-12-18T06:12:32;19.53;;;12.17;;
56399;SDS011;42298;53.638;9.876;2022-12-18T06:14:58;18.03;;;11.17;;
56399;SDS011;42298;53.638;9.876;2022-12-18T06:17:28;18.27;;;11.37;;
56399;SDS011;42298;53.638;9.876;2022-12-18T06:19:54;17.17;;;10.80;;
56399;SDS011;42298;53.638;9.876;2022-12-18T06:22:19;25.03;;;11.10;;
56399;SDS011;42298;53.638;9.876;2022-12-18T06:24:45;18.57;;;11.33;;
56399;SDS011;42298;53.638;9.876;2022-12-18T06:27:10;20.80;;;11.17;;
56399;SDS011;42298;53.638;9.876;2022-12-18T06:29:35;18.43;;;10.87;;
56399;SDS011;42298;53.638;9.876;2022-12-18T06:32:00;21.30;;;12.60;;
56399;SDS011;42298;53.638;9.876;2022-12-18T06:34:26;19.67;;;10.30;;
56399;SDS011;42298;53.638;9.876;2022-12-18T06:36:51;23.17;;;12.27;;
56399;SDS011;42298;53.638;9.876;2022-12-18T06:39:17;20.53;;;11.47;;
56399;SDS011;42298;53.638;9.876;2022-12-18T06:41:42;24.07;;;13.10;;
56399;SDS011;42298;53.638;9.876;2022-12-18T06:44:07;20.40;;;13.10;;
56399;SDS011;42298;53.638;9.876;2022-12-18T06:46:33;21.30;;;13.00;;
56399;SDS011;42298;53.638;9.876;2022-12-18T06:48:58;20.87;;;12.90;;
56399;SDS011;42298;53.638;9.876;2022-12-18T06:51:25;20.57;;;11.67;;
56399;SDS011;42298;53.638;9.876;2022-12-18T06:53:50;22.27;;;13.13;;
56399;SDS011;42298;53.638;9.876;2022-12-18T06:56:15;20.27;;;13.00;;
56399;SDS011;42298;53.638;9.876;2022-12-18T06:58:42;21.37;;;12.80;;
56399;SDS011;42298;53.638;9.876;2022-12-18T07:01:09;21.13;;;12.83;;
56399;SDS011;42298;53.638;9.876;2022-12-18T07:03:37;19.60;;;12.20;;
56399;SDS011;42298;53.638;9.876;2022-12-18T07:06:03;21.90;;;12.23;;
56399;SDS011;42298;53.638;9.876;2022-12-18T07:08:29;21.90;;;11.97;;
56399;SDS011;42298;53.638;9.876;2022-12-18T07:10:56;21.17;;;12.90;;
56399;SDS011;42298;53.638;9.876;2022-12-18T07:13:21;19.73;;;12.97;;
56399;SDS011;42298;53.638;9.876;2022-12-18T07:15:47;20.30;;;12.50;;
56399;SDS011;42298;53.638;9.876;2022-12-18T07:18:12;19.73;;;11.33;;
56399;SDS011;42298;53.638;9.876;2022-12-18T07:20:37;20.07;;;12.17;;
56399;SDS011;42298;53.638;9.876;2022-12-18T07:23:03;18.40;;;10.87;;
56399;SDS011;42298;53.638;9.876;2022-12-18T07:25:30;19.77;;;11.43;;
56399;SDS011;42298;53.638;9.876;2022-12-18T07:27:58;19.93;;;11.57;;
56399;SDS011;42298;53.638;9.876;2022-12-18T07:30:23;17.60;;;10.40;;
56399;SDS011;42298;53.638;9.876;2022-12-18T07:32:48;19.70;;;10.63;;
56399;SDS011;42298;53.638;9.876;2022-12-18T07:35:14;19.20;;;10.80;;
56399;SDS011;42298;53.638;9.876;2022-12-18T07:37:40;19.83;;;10.87;;
56399;SDS011;42298;53.638;9.876;2022-12-18T07:40:06;20.20;;;11.47;;
56399;SDS011;42298;53.638;9.876;2022-12-18T07:42:31;18.13;;;10.43;;
56399;SDS011;42298;53.638;9.876;2022-12-18T07:44:59;20.37;;;10.70;;
56399;SDS011;42298;53.638;9.876;2022-12-18T07:47:25;20.57;;;10.23;;
56399;SDS011;42298;53.638;9.876;2022-12-18T07:49:53;22.57;;;12.47;;
56399;SDS011;42298;53.638;9.876;2022-12-18T07:52:18;19.40;;;11.70;;
56399;SDS011;42298;53.638;9.876;2022-12-18T07:54:44;21.43;;;11.67;;
56399;SDS011;42298;53.638;9.876;2022-12-18T07:57:10;20.53;;;11.07;;
56399;SDS011;42298;53.638;9.876;2022-12-18T07:59:36;17.37;;;10.10;;
56399;SDS011;42298;53.638;9.876;2022-12-18T08:02:01;16.67;;;10.47;;
56399;SDS011;42298;53.638;9.876;2022-12-18T08:04:26;18.47;;;10.77;;
56399;SDS011;42298;53.638;9.876;2022-12-18T08:06:52;18.97;;;11.30;;
56399;SDS011;42298;53.638;9.876;2022-12-18T08:09:17;17.87;;;11.20;;
56399;SDS011;42298;53.638;9.876;2022-12-18T08:11:43;18.17;;;10.77;;
56399;SDS011;42298;53.638;9.876;2022-12-18T08:14:08;19.73;;;12.07;;
56399;SDS011;42298;53.638;9.876;2022-12-18T08:16:34;18.43;;;11.00;;
56399;SDS011;42298;53.638;9.876;2022-12-18T08:19:00;19.03;;;11.10;;
56399;SDS011;42298;53.638;9.876;2022-12-18T08:21:28;19.13;;;11.37;;
56399;SDS011;42298;53.638;9.876;2022-12-18T08:23:55;20.57;;;12.00;;
56399;SDS011;42298;53.638;9.876;2022-12-18T08:26:22;18.80;;;10.40;;
56399;SDS011;42298;53.638;9.876;2022-12-18T08:28:49;22.37;;;12.40;;
56399;SDS011;42298;53.638;9.876;2022-12-18T08:31:15;20.63;;;11.53;;
56399;SDS011;42298;53.638;9.876;2022-12-18T08:33:40;19.33;;;10.30;;
56399;SDS011;42298;53.638;9.876;2022-12-18T08:36:07;19.17;;;11.63;;
56399;SDS011;42298;53.638;9.876;2022-12-18T08:38:34;20.90;;;12.60;;
56399;SDS011;42298;53.638;9.876;2022-12-18T08:41:03;19.90;;;12.03;;
56399;SDS011;42298;53.638;9.876;2022-12-18T08:43:30;19.03;;;11.67;;
56399;SDS011;42298;53.638;9.876;2022-12-18T08:46:18;19.40;;;11.77;;
56399;SDS011;42298;53.638;9.876;2022-12-18T08:48:44;22.73;;;11.83;;
56399;SDS011;42298;53.638;9.876;2022-12-18T08:51:10;19.60;;;11.13;;
56399;SDS011;42298;53.638;9.876;2022-12-18T08:53:36;20.30;;;12.23;;
56399;SDS011;42298;53.638;9.876;2022-12-18T08:56:02;20.70;;;11.03;;
56399;SDS011;42298;53.638;9.876;2022-12-18T08:58:28;18.27;;;10.73;;
56399;SDS011;42298;53.638;9.876;2022-12-18T09:00:59;21.50;;;12.40;;
56399;SDS011;42298;53.638;9.876;2022-12-18T09:03:25;18.53;;;11.57;;
56399;SDS011;42298;53.638;9.876;2022-12-18T09:05:50;16.10;;;9.87;;
56399;SDS011;42298;53.638;9.876;2022-12-18T09:08:15;20.33;;;10.43;;
56399;SDS011;42298;53.638;9.876;2022-12-18T09:10:44;18.93;;;10.00;;
56399;SDS011;42298;53.638;9.876;2022-12-18T09:13:11;15.87;;;10.17;;
56399;SDS011;42298;53.638;9.876;2022-12-18T09:15:55;20.43;;;11.03;;
56399;SDS011;42298;53.638;9.876;2022-12-18T09:18:21;18.00;;;11.10;;
56399;SDS011;42298;53.638;9.876;2022-12-18T09:20:47;15.47;;;9.93;;
56399;SDS011;42298;53.638;9.876;2022-12-18T09:23:13;22.10;;;11.00;;
56399;SDS011;42298;53.638;9.876;2022-12-18T09:25:39;24.87;;;11.47;;
56399;SDS011;42298;53.638;9.876;2022-12-18T09:28:11;19.70;;;10.57;;
56399;SDS011;42298;53.638;9.876;2022-12-18T09:30:42;18.50;;;10.87;;
56399;SDS011;42298;53.638;9.876;2022-12-18T09:33:09;19.93;;;11.97;;
56399;SDS011;42298;53.638;9.876;2022-12-18T09:35:38;18.10;;;10.50;;
56399;SDS011;42298;53.638;9.876;2022-12-18T09:38:06;18.97;;;10.70;;
56399;SDS011;42298;53.638;9.876;2022-12-18T09:40:36;17.87;;;10.03;;
56399;SDS011;42298;53.638;9.876;2022-12-18T09:43:13;18.60;;;11.17;;
56399;SDS011;42298;53.638;9.876;2022-12-18T09:45:47;19.50;;;12.47;;
56399;SDS011;42298;53.638;9.876;2022-12-18T09:48:19;20.30;;;12.03;;
56399;SDS011;42298;53.638;9.876;2022-12-18T09:50:50;17.90;;;10.53;;
56399;SDS011;42298;53.638;9.876;2022-12-18T09:53:19;18.50;;;10.37;;
56399;SDS011;42298;53.638;9.876;2022-12-18T09:55:49;18.33;;;11.07;;
56399;SDS011;42298;53.638;9.876;2022-12-18T09:58:36;20.20;;;11.07;;
56399;SDS011;42298;53.638;9.876;2022-12-18T10:01:10;17.43;;;10.13;;
56399;SDS011;42298;53.638;9.876;2022-12-18T10:03:39;19.03;;;12.10;;
56399;SDS011;42298;53.638;9.876;2022-12-18T10:06:12;19.80;;;10.40;;
56399;SDS011;42298;53.638;9.876;2022-12-18T10:14:26;18.20;;;9.97;;
56399;SDS011;42298;53.638;9.876;2022-12-18T10:24:49;20.37;;;9.97;;
56399;SDS011;42298;53.638;9.876;2022-12-18T10:27:18;20.50;;;10.73;;
56399;SDS011;42298;53.638;9.876;2022-12-18T10:29:48;19.47;;;9.47;;
56399;SDS011;42298;53.638;9.876;2022-12-18T10:32:20;18.60;;;10.43;;
56399;SDS011;42298;53.638;9.876;2022-12-18T10:34:51;16.17;;;9.70;;
56399;SDS011;42298;53.638;9.876;2022-12-18T10:37:20;18.77;;;10.50;;
56399;SDS011;42298;53.638;9.876;2022-12-18T10:42:40;15.50;;;8.93;;
56399;SDS011;42298;53.638;9.876;2022-12-18T10:45:15;16.80;;;10.50;;
56399;SDS011;42298;53.638;9.876;2022-12-18T10:47:45;18.83;;;10.63;;
56399;SDS011;42298;53.638;9.876;2022-12-18T10:52:57;16.30;;;9.93;;
56399;SDS011;42298;53.638;9.876;2022-12-18T10:55:31;20.77;;;10.83;;
56399;SDS011;42298;53.638;9.876;2022-12-18T10:58:13;15.90;;;10.27;;
56399;SDS011;42298;53.638;9.876;2022-12-18T11:00:38;16.20;;;9.67;;
56399;SDS011;42298;53.638;9.876;2022-12-18T11:03:07;17.93;;;10.60;;
56399;SDS011;42298;53.638;9.876;2022-12-18T11:06:04;19.03;;;9.87;;
56399;SDS011;42298;53.638;9.876;2022-12-18T11:08:31;16.93;;;8.97;;
56399;SDS011;42298;53.638;9.876;2022-12-18T11:10:57;18.80;;;10.77;;
56399;SDS011;42298;53.638;9.876;2022-12-18T11:13:23;17.40;;;10.47;;
56399;SDS011;42298;53.638;9.876;2022-12-18T11:15:51;17.20;;;10.07;;
56399;SDS011;42298;53.638;9.876;2022-12-18T11:18:25;19.43;;;10.67;;
56399;SDS011;42298;53.638;9.876;2022-12-18T11:20:59;18.93;;;10.50;;
56399;SDS011;42298;53.638;9.876;2022-12-18T11:23:32;20.10;;;10.83;;
56399;SDS011;42298;53.638;9.876;2022-12-18T11:25:59;18.23;;;9.90;;
56399;SDS011;42298;53.638;9.876;2022-12-18T11:28:38;16.60;;;9.50;;
56399;SDS011;42298;53.638;9.876;2022-12-18T11:31:31;19.33;;;11.00;;
56399;SDS011;42298;53.638;9.876;2022-12-18T11:36:45;15.87;;;10.10;;
56399;SDS011;42298;53.638;9.876;2022-12-18T11:42:20;18.90;;;10.90;;
56399;SDS011;42298;53.638;9.876;2022-12-18T11:44:58;17.93;;;10.10;;
56399;SDS011;42298;53.638;9.876;2022-12-18T11:50:01;17.30;;;10.00;;
56399;SDS011;42298;53.638;9.876;2022-12-18T11:52:31;16.70;;;10.40;;
56399;SDS011;42298;53.638;9.876;2022-12-18T11:55:04;19.80;;;10.00;;
56399;SDS011;42298;53.638;9.876;2022-12-18T11:57:45;19.23;;;10.67;;
56399;SDS011;42298;53.638;9.876;2022-12-18T12:00:19;16.93;;;10.73;;
56399;SDS011;42298;53.638;9.876;2022-12-18T12:05:51;21.23;;;11.03;;
56399;SDS011;42298;53.638;9.876;2022-12-18T12:08:46;19.57;;;10.90;;
56399;SDS011;42298;53.638;9.876;2022-12-18T12:31:04;18.73;;;11.20;;
56399;SDS011;42298;53.638;9.876;2022-12-18T12:38:54;17.77;;;10.40;;
56399;SDS011;42298;53.638;9.876;2022-12-18T12:41:23;16.47;;;10.23;;
56399;SDS011;42298;53.638;9.876;2022-12-18T12:44:16;21.30;;;12.80;;
56399;SDS011;42298;53.638;9.876;2022-12-18T12:46:47;20.50;;;12.73;;
56399;SDS011;42298;53.638;9.876;2022-12-18T12:49:15;21.67;;;12.80;;
56399;SDS011;42298;53.638;9.876;2022-12-18T12:51:49;21.70;;;13.17;;
56399;SDS011;42298;53.638;9.876;2022-12-18T12:54:23;21.13;;;12.57;;
56399;SDS011;42298;53.638;9.876;2022-12-18T13:02:35;19.77;;;12.50;;
56399;SDS011;42298;53.638;9.876;2022-12-18T13:10:31;23.20;;;12.77;;
56399;SDS011;42298;53.638;9.876;2022-12-18T13:15:42;20.83;;;11.40;;
56399;SDS011;42298;53.638;9.876;2022-12-18T13:18:13;22.77;;;13.77;;
56399;SDS011;42298;53.638;9.876;2022-12-18T13:20:43;22.37;;;13.13;;
56399;SDS011;42298;53.638;9.876;2022-12-18T13:23:38;20.00;;;11.40;;
56399;SDS011;42298;53.638;9.876;2022-12-18T13:31:10;23.20;;;14.00;;
56399;SDS011;42298;53.638;9.876;2022-12-18T13:36:38;21.40;;;12.07;;
56399;SDS011;42298;53.638;9.876;2022-12-18T13:39:10;21.93;;;11.20;;
56399;SDS011;42298;53.638;9.876;2022-12-18T13:41:36;21.27;;;12.03;;
56399;SDS011;42298;53.638;9.876;2022-12-18T13:44:12;24.03;;;13.73;;
56399;SDS011;42298;53.638;9.876;2022-12-18T13:46:48;21.47;;;12.27;;
56399;SDS011;42298;53.638;9.876;2022-12-18T13:49:20;22.67;;;13.40;;
56399;SDS011;42298;53.638;9.876;2022-12-18T13:51:54;22.47;;;13.73;;
56399;SDS011;42298;53.638;9.876;2022-12-18T13:54:24;23.63;;;13.63;;
56399;SDS011;42298;53.638;9.876;2022-12-18T13:56:52;22.13;;;13.30;;
56399;SDS011;42298;53.638;9.876;2022-12-18T14:01:54;25.53;;;14.67;;
56399;SDS011;42298;53.638;9.876;2022-12-18T14:04:22;26.03;;;14.40;;
56399;SDS011;42298;53.638;9.876;2022-12-18T14:06:55;27.33;;;14.53;;
56399;SDS011;42298;53.638;9.876;2022-12-18T14:09:35;27.93;;;14.77;;
56399;SDS011;42298;53.638;9.876;2022-12-18T14:12:02;27.63;;;16.43;;
56399;SDS011;42298;53.638;9.876;2022-12-18T14:14:47;29.57;;;16.90;;
56399;SDS011;42298;53.638;9.876;2022-12-18T14:17:15;29.83;;;17.67;;
56399;SDS011;42298;53.638;9.876;2022-12-18T14:19:45;27.43;;;16.07;;
56399;SDS011;42298;53.638;9.876;2022-12-18T14:22:15;57.93;;;32.63;;
56399;SDS011;42298;53.638;9.876;2022-12-18T14:24:45;46.73;;;26.20;;
56399;SDS011;42298;53.638;9.876;2022-12-18T14:27:22;44.17;;;27.33;;
56399;SDS011;42298;53.638;9.876;2022-12-18T14:29:50;30.57;;;17.73;;
56399;SDS011;42298;53.638;9.876;2022-12-18T14:32:19;33.73;;;19.03;;
56399;SDS011;42298;53.638;9.876;2022-12-18T14:34:47;30.83;;;16.60;;
56399;SDS011;42298;53.638;9.876;2022-12-18T14:37:16;28.90;;;17.73;;
56399;SDS011;42298;53.638;9.876;2022-12-18T14:39:52;28.67;;;16.27;;
56399;SDS011;42298;53.638;9.876;2022-12-18T14:42:25;32.13;;;18.70;;
56399;SDS011;42298;53.638;9.876;2022-12-18T14:45:31;34.67;;;18.27;;
56399;SDS011;42298;53.638;9.876;2022-12-18T14:47:57;29.07;;;16.43;;
56399;SDS011;42298;53.638;9.876;2022-12-18T14:50:23;31.83;;;16.87;;
56399;SDS011;42298;53.638;9.876;2022-12-18T14:52:48;31.83;;;16.50;;
56399;SDS011;42298;53.638;9.876;2022-12-18T14:55:18;28.43;;;16.47;;
56399;SDS011;42298;53.638;9.876;2022-12-18T14:57:48;31.10;;;16.20;;
56399;SDS011;42298;53.638;9.876;2022-12-18T15:00:20;30.43;;;17.93;;
56399;SDS011;42298;53.638;9.876;2022-12-18T15:02:47;29.90;;;18.10;;
56399;SDS011;42298;53.638;9.876;2022-12-18T15:05:25;30.80;;;16.80;;
56399;SDS011;42298;53.638;9.876;2022-12-18T15:08:34;31.20;;;17.00;;
56399;SDS011;42298;53.638;9.876;2022-12-18T15:11:02;32.90;;;18.20;;
56399;SDS011;42298;53.638;9.876;2022-12-18T15:13:27;31.70;;;18.03;;
56399;SDS011;42298;53.638;9.876;2022-12-18T15:15:54;33.23;;;18.03;;
56399;SDS011;42298;53.638;9.876;2022-12-18T15:18:25;31.97;;;17.70;;
56399;SDS011;42298;53.638;9.876;2022-12-18T15:20:58;35.03;;;18.60;;
56399;SDS011;42298;53.638;9.876;2022-12-18T15:26:02;35.63;;;20.17;;
56399;SDS011;42298;53.638;9.876;2022-12-18T15:28:34;31.03;;;17.23;;
56399;SDS011;42298;53.638;9.876;2022-12-18T15:31:04;38.10;;;18.93;;
56399;SDS011;42298;53.638;9.876;2022-12-18T15:33:30;36.43;;;19.07;;
56399;SDS011;42298;53.638;9.876;2022-12-18T15:36:01;34.47;;;18.47;;
56399;SDS011;42298;53.638;9.876;2022-12-18T15:38:28;32.77;;;18.90;;
56399;SDS011;42298;53.638;9.876;2022-12-18T15:40:54;38.70;;;19.67;;
56399;SDS011;42298;53.638;9.876;2022-12-18T15:43:21;35.43;;;18.83;;
56399;SDS011;42298;53.638;9.876;2022-12-18T15:46:19;38.70;;;18.63;;
56399;SDS011;42298;53.638;9.876;2022-12-18T15:48:49;37.33;;;19.13;;
56399;SDS011;42298;53.638;9.876;2022-12-18T15:51:24;38.23;;;19.60;;
56399;SDS011;42298;53.638;9.876;2022-12-18T15:53:56;35.13;;;20.57;;
56399;SDS011;42298;53.638;9.876;2022-12-18T15:56:28;34.30;;;19.60;;
56399;SDS011;42298;53.638;9.876;2022-12-18T15:59:13;35.10;;;18.17;;
56399;SDS011;42298;53.638;9.876;2022-12-18T16:01:40;33.67;;;19.53;;
56399;SDS011;42298;53.638;9.876;2022-12-18T16:04:06;40.43;;;20.10;;
56399;SDS011;42298;53.638;9.876;2022-12-18T16:06:35;39.50;;;20.03;;
56399;SDS011;42298;53.638;9.876;2022-12-18T16:09:01;42.50;;;23.40;;
56399;SDS011;42298;53.638;9.876;2022-12-18T16:11:27;37.47;;;20.60;;
56399;SDS011;42298;53.638;9.876;2022-12-18T16:14:16;33.93;;;18.37;;
56399;SDS011;42298;53.638;9.876;2022-12-18T16:16:50;39.07;;;18.97;;
56399;SDS011;42298;53.638;9.876;2022-12-18T16:19:17;33.30;;;18.40;;
56399;SDS011;42298;53.638;9.876;2022-12-18T16:21:43;33.70;;;18.33;;
56399;SDS011;42298;53.638;9.876;2022-12-18T16:24:12;32.40;;;18.70;;
56399;SDS011;42298;53.638;9.876;2022-12-18T16:26:40;35.43;;;18.13;;